createdAt,value
2022-07-26T00:01:59.808Z,1.40
2022-07-26T00:04:29.261Z,1.27
2022-07-26T00:06:57.295Z,1.42
2022-07-26T00:09:25.307Z,1.30
2022-07-26T00:11:53.324Z,1.15
2022-07-26T00:14:21.420Z,1.20
2022-07-26T00:16:49.518Z,1.20
2022-07-26T00:19:17.640Z,1.20
2022-07-26T00:21:47.047Z,1.08
2022-07-26T00:24:15.093Z,1.20
2022-07-26T00:26:43.202Z,1.20
2022-07-26T00:29:11.928Z,1.27
2022-07-26T00:31:40.193Z,1.30
2022-07-26T00:34:15.012Z,1.45
2022-07-26T00:36:44.447Z,1.13
2022-07-26T00:39:14.927Z,1.30
2022-07-26T00:41:42.926Z,1.20
2022-07-26T00:44:11.049Z,1.40
2022-07-26T00:46:39.101Z,1.25
2022-07-26T00:49:07.515Z,1.17
2022-07-26T00:51:35.923Z,1.40
2022-07-26T00:54:04.816Z,1.20
2022-07-26T00:56:34.886Z,1.00
2022-07-26T00:59:02.991Z,1.00
2022-07-26T01:01:31.089Z,1.13
2022-07-26T01:03:59.260Z,1.20
2022-07-26T01:06:27.686Z,1.10
2022-07-26T01:08:55.880Z,1.30
2022-07-26T01:11:23.871Z,1.10
2022-07-26T01:13:53.240Z,1.30
2022-07-26T01:16:21.287Z,1.10
2022-07-26T01:18:49.277Z,1.30
2022-07-26T01:21:17.317Z,1.40
2022-07-26T01:23:46.775Z,1.08
2022-07-26T01:26:15.010Z,1.00
2022-07-26T01:28:44.910Z,1.27
2022-07-26T01:31:13.138Z,1.20
2022-07-26T01:33:41.198Z,1.15
2022-07-26T01:36:09.887Z,1.27
2022-07-26T01:38:40.565Z,1.08
2022-07-26T01:41:10.038Z,1.15
2022-07-26T01:43:38.209Z,1.30
2022-07-26T01:46:07.432Z,0.90
2022-07-26T01:48:35.624Z,1.00
2022-07-26T01:51:04.261Z,1.00
2022-07-26T01:53:32.505Z,1.13
2022-07-26T01:56:00.456Z,1.00
2022-07-26T01:58:29.856Z,1.05
2022-07-26T02:00:58.020Z,1.00
2022-07-26T02:03:27.878Z,1.10
2022-07-26T02:05:55.872Z,1.13
2022-07-26T02:08:23.907Z,1.00
2022-07-26T02:11:03.568Z,1.10
2022-07-26T02:13:34.448Z,1.00
2022-07-26T02:16:02.513Z,1.20
2022-07-26T02:18:31.184Z,1.10
2022-07-26T02:20:59.162Z,1.08
2022-07-26T02:23:28.064Z,1.15
2022-07-26T02:25:56.452Z,1.02
2022-07-26T02:28:24.410Z,1.15
2022-07-26T02:30:53.826Z,1.00
2022-07-26T02:33:22.240Z,0.90
2022-07-26T02:35:50.256Z,1.00
2022-07-26T02:38:18.468Z,1.10
2022-07-26T02:40:50.544Z,1.10
2022-07-26T02:43:18.617Z,1.00
2022-07-26T02:46:01.549Z,1.10
2022-07-26T02:48:31.956Z,0.88
2022-07-26T02:51:00.017Z,1.00
2022-07-26T02:53:28.151Z,1.05
2022-07-26T02:55:56.146Z,1.10
2022-07-26T02:58:25.199Z,0.73
2022-07-26T03:00:53.260Z,0.90
2022-07-26T03:03:21.238Z,0.90
2022-07-26T03:05:50.629Z,1.00
2022-07-26T03:08:18.634Z,0.90
2022-07-26T03:10:46.695Z,1.08
2022-07-26T03:13:15.287Z,1.00
2022-07-26T03:15:43.372Z,0.90
2022-07-26T03:18:11.374Z,0.82
2022-07-26T03:20:39.347Z,0.70
2022-07-26T03:23:08.706Z,0.95
2022-07-26T03:25:37.721Z,0.90
2022-07-26T03:28:06.393Z,0.80
2022-07-26T03:30:34.587Z,0.90
2022-07-26T03:33:02.605Z,1.02
2022-07-26T03:35:30.761Z,0.80
2022-07-26T03:38:10.739Z,0.90
2022-07-26T03:40:40.125Z,0.80
2022-07-26T03:43:08.124Z,1.00
2022-07-26T03:45:36.305Z,0.90
2022-07-26T03:48:04.429Z,0.98
2022-07-26T03:50:32.516Z,0.88
2022-07-26T03:53:00.468Z,0.98
2022-07-26T03:55:45.814Z,0.80
2022-07-26T03:58:15.163Z,0.80
2022-07-26T04:00:43.185Z,0.70
2022-07-26T04:03:11.235Z,0.93
2022-07-26T04:08:17.211Z,0.90
2022-07-26T04:10:47.067Z,0.95
2022-07-26T04:13:16.509Z,0.90
2022-07-26T04:18:14.142Z,1.00
2022-07-26T04:20:42.342Z,0.70
2022-07-26T04:23:10.681Z,0.90
2022-07-26T04:25:40.928Z,0.90
2022-07-26T04:28:09.637Z,0.90
2022-07-26T04:30:39.301Z,0.93
2022-07-26T04:33:07.355Z,0.90
2022-07-26T04:35:35.441Z,1.02
2022-07-26T04:38:04.165Z,0.90
2022-07-26T04:40:33.734Z,0.90
2022-07-26T04:43:01.843Z,0.98
2022-07-26T04:45:30.067Z,1.10
2022-07-26T04:47:59.430Z,0.90
2022-07-26T04:50:28.157Z,0.93
2022-07-26T04:53:05.455Z,0.90
2022-07-26T04:55:33.381Z,0.93
2022-07-26T04:58:01.395Z,0.93
2022-07-26T05:00:29.333Z,0.90
2022-07-26T05:02:59.346Z,1.00
2022-07-26T05:05:28.208Z,0.93
2022-07-26T05:07:56.906Z,1.00
2022-07-26T05:10:30.169Z,1.00
2022-07-26T05:12:58.193Z,1.00
2022-07-26T05:15:34.944Z,0.90
2022-07-26T05:18:07.002Z,1.02
2022-07-26T05:20:36.301Z,0.90
2022-07-26T05:23:04.379Z,1.00
2022-07-26T05:25:32.390Z,0.95
2022-07-26T05:28:00.370Z,1.10
2022-07-26T05:30:28.506Z,1.00
2022-07-26T05:32:56.577Z,0.95
2022-07-26T05:35:26.050Z,1.00
2022-07-26T05:37:54.036Z,1.05
2022-07-26T05:40:22.552Z,1.00
2022-07-26T05:42:50.553Z,0.75
2022-07-26T05:45:18.471Z,0.90
2022-07-26T05:47:46.671Z,0.90
2022-07-26T05:50:14.628Z,1.13
2022-07-26T05:52:44.076Z,0.80
2022-07-26T05:55:12.077Z,1.00
2022-07-26T05:57:41.599Z,0.95
2022-07-26T06:00:10.686Z,0.90
2022-07-26T06:02:38.693Z,1.00
2022-07-26T06:05:06.956Z,0.90
2022-07-26T06:07:34.968Z,0.95
2022-07-26T06:10:04.521Z,0.90
2022-07-26T06:12:32.517Z,1.00
2022-07-26T06:15:00.466Z,0.80
2022-07-26T06:17:30.417Z,1.00
2022-07-26T06:19:58.664Z,1.00
2022-07-26T06:22:26.870Z,1.00
2022-07-26T06:24:54.874Z,0.90
2022-07-26T06:27:24.276Z,1.00
2022-07-26T06:29:52.720Z,1.00
2022-07-26T06:32:20.742Z,0.82
2022-07-26T06:34:48.764Z,1.10
2022-07-26T06:37:16.757Z,1.05
2022-07-26T06:39:44.739Z,0.88
2022-07-26T06:42:12.722Z,1.00
2022-07-26T06:44:41.996Z,1.00
2022-07-26T06:47:09.985Z,0.90
2022-07-26T06:49:38.051Z,1.00
2022-07-26T06:52:06.655Z,1.00
2022-07-26T06:54:34.654Z,0.90
2022-07-26T06:57:02.647Z,0.90
2022-07-26T06:59:30.642Z,0.98
2022-07-26T07:02:01.826Z,0.90
2022-07-26T07:04:30.252Z,1.00
2022-07-26T07:07:04.541Z,0.95
2022-07-26T07:09:34.086Z,0.88
2022-07-26T07:12:09.893Z,1.00
2022-07-26T07:14:38.671Z,0.90
2022-07-26T07:17:13.045Z,1.00
2022-07-26T07:19:42.340Z,1.00
2022-07-26T07:22:12.253Z,0.98
2022-07-26T07:24:40.823Z,1.10
2022-07-26T07:27:08.862Z,0.85
2022-07-26T07:29:38.832Z,1.00
2022-07-26T07:32:15.877Z,0.98
2022-07-26T07:34:47.727Z,1.00
2022-07-26T07:37:15.946Z,1.00
2022-07-26T07:39:43.945Z,1.02
2022-07-26T07:42:16.955Z,1.10
2022-07-26T07:44:45.110Z,1.10
2022-07-26T07:47:14.959Z,1.00
2022-07-26T07:49:43.040Z,1.00
2022-07-26T07:52:11.032Z,0.98
2022-07-26T07:54:39.095Z,0.90
2022-07-26T07:57:07.103Z,1.10
2022-07-26T07:59:39.364Z,0.98
2022-07-26T08:02:07.652Z,1.00
2022-07-26T08:04:37.199Z,1.00
2022-07-26T08:07:06.973Z,0.90
2022-07-26T08:09:34.941Z,0.93
2022-07-26T08:12:03.080Z,1.10
2022-07-26T08:14:31.161Z,0.90
2022-07-26T08:16:59.241Z,0.93
2022-07-26T08:19:31.030Z,0.80
2022-07-26T08:22:11.216Z,0.95
2022-07-26T08:24:39.259Z,0.98
2022-07-26T08:27:07.278Z,1.10
2022-07-26T08:29:35.260Z,1.00
2022-07-26T08:32:03.311Z,0.90
2022-07-26T08:34:31.403Z,0.90
2022-07-26T08:37:18.119Z,0.80
2022-07-26T08:39:48.125Z,1.10
2022-07-26T08:42:16.594Z,0.90
2022-07-26T08:44:45.484Z,1.00
2022-07-26T08:47:14.136Z,0.70
2022-07-26T08:49:42.378Z,0.95
2022-07-26T08:52:10.513Z,0.90
2022-07-26T08:54:38.589Z,1.00
2022-07-26T08:57:11.011Z,0.80
2022-07-26T08:59:39.120Z,0.82
2022-07-26T09:02:07.817Z,1.05
2022-07-26T09:04:43.631Z,0.98
2022-07-26T09:07:13.997Z,1.00
2022-07-26T09:09:58.008Z,0.90
2022-07-26T09:12:27.781Z,0.90
2022-07-26T09:14:55.861Z,0.80
2022-07-26T09:17:24.755Z,0.85
2022-07-26T09:20:05.976Z,0.90
2022-07-26T09:22:33.940Z,0.80
2022-07-26T09:25:01.944Z,0.80
2022-07-26T09:27:37.060Z,0.88
2022-07-26T09:30:07.606Z,0.90
2022-07-26T09:32:36.913Z,0.80
2022-07-26T09:35:44.259Z,0.88
2022-07-26T09:37:59.647Z,0.77
2022-07-26T09:40:33.358Z,1.00
2022-07-26T09:43:03.472Z,0.80
2022-07-26T09:45:32.820Z,0.90
2022-07-26T09:48:00.812Z,1.00
2022-07-26T09:50:29.749Z,0.80
2022-07-26T09:53:10.436Z,0.82
2022-07-26T09:55:46.017Z,0.90
2022-07-26T09:58:16.095Z,0.85
2022-07-26T10:00:44.130Z,0.90
2022-07-26T10:03:12.443Z,0.90
2022-07-26T10:05:40.485Z,0.93
2022-07-26T10:08:09.033Z,0.80
2022-07-26T10:10:41.665Z,0.80
2022-07-26T10:13:09.880Z,0.90
2022-07-26T10:15:41.542Z,0.90
2022-07-26T10:18:16.575Z,0.93
2022-07-26T10:20:50.025Z,1.00
2022-07-26T10:23:47.876Z,0.80
2022-07-26T10:26:37.440Z,0.80
2022-07-26T10:29:26.099Z,0.90
2022-07-26T10:32:20.640Z,0.90
2022-07-26T10:34:48.728Z,0.73
2022-07-26T10:37:28.203Z,0.70
2022-07-26T10:40:17.373Z,0.80
2022-07-26T10:42:45.851Z,0.70
2022-07-26T10:45:22.031Z,0.90
2022-07-26T10:48:14.407Z,1.00
2022-07-26T10:50:42.822Z,0.80
2022-07-26T10:53:11.409Z,0.80
2022-07-26T10:55:49.705Z,0.82
2022-07-26T10:58:17.702Z,0.90
2022-07-26T11:00:56.472Z,0.90
2022-07-26T11:03:25.876Z,0.80
2022-07-26T11:05:53.844Z,0.70
2022-07-26T11:08:21.865Z,0.77
2022-07-26T11:10:49.824Z,0.90
2022-07-26T11:13:18.580Z,0.90
2022-07-26T11:15:48.378Z,0.80
2022-07-26T11:18:22.356Z,1.00
2022-07-26T11:20:54.287Z,0.80
2022-07-26T11:23:33.332Z,0.90
2022-07-26T11:26:09.333Z,0.77
2022-07-26T11:28:57.713Z,0.90
2022-07-26T11:31:49.660Z,0.90
2022-07-26T11:34:19.734Z,0.80
2022-07-26T11:36:49.176Z,0.90
2022-07-26T11:39:17.676Z,0.80
2022-07-26T11:41:45.839Z,0.88
2022-07-26T11:44:17.574Z,1.17
2022-07-26T11:46:47.787Z,0.77
2022-07-26T11:49:17.161Z,0.90
2022-07-26T11:51:53.714Z,0.90
2022-07-26T11:54:21.881Z,0.95
2022-07-26T11:56:56.301Z,0.90
2022-07-26T12:01:52.793Z,0.90
2022-07-26T12:04:22.033Z,0.80
2022-07-26T12:06:50.222Z,0.75
2022-07-26T12:09:33.468Z,0.77
2022-07-26T12:12:02.256Z,0.88
2022-07-26T12:14:30.928Z,0.80
2022-07-26T12:16:59.026Z,0.80
2022-07-26T12:19:29.437Z,0.90
2022-07-26T12:22:00.040Z,0.90
2022-07-26T12:24:46.061Z,0.90
2022-07-26T12:27:16.003Z,0.88
2022-07-26T12:29:45.055Z,0.90
2022-07-26T12:32:14.767Z,0.80
2022-07-26T12:34:43.514Z,0.90
2022-07-26T12:37:16.749Z,0.90
2022-07-26T12:40:04.409Z,0.90
2022-07-26T12:42:34.613Z,0.85
2022-07-26T12:45:02.955Z,0.77
2022-07-26T12:47:31.015Z,0.90
2022-07-26T12:49:59.081Z,0.90
2022-07-26T12:52:27.400Z,0.80
2022-07-26T12:54:56.837Z,0.70
2022-07-26T12:57:24.849Z,0.93
2022-07-26T12:59:52.861Z,0.70
2022-07-26T13:02:20.906Z,0.95
2022-07-26T13:04:49.145Z,0.95
2022-07-26T13:07:17.569Z,0.98
2022-07-26T13:09:45.656Z,0.80
2022-07-26T13:12:15.797Z,1.00
2022-07-26T13:14:44.172Z,0.93
2022-07-26T13:17:12.417Z,0.90
2022-07-26T13:19:40.482Z,0.98
2022-07-26T13:22:08.520Z,0.88
2022-07-26T13:24:38.673Z,1.00
2022-07-26T13:27:06.701Z,0.85
2022-07-26T13:29:36.320Z,1.00
2022-07-26T13:32:04.328Z,0.82
2022-07-26T13:34:35.046Z,0.98
2022-07-26T13:37:08.224Z,0.90
2022-07-26T13:39:36.698Z,0.80
2022-07-26T13:42:05.005Z,0.90
2022-07-26T13:44:33.232Z,0.90
2022-07-26T13:47:02.794Z,0.85
2022-07-26T13:49:31.100Z,0.93
2022-07-26T13:51:59.162Z,0.90
2022-07-26T13:54:28.141Z,0.80
2022-07-26T13:56:56.148Z,0.90
2022-07-26T13:59:24.286Z,0.88
2022-07-26T14:01:52.501Z,0.80
2022-07-26T14:04:22.161Z,0.90
2022-07-26T14:06:50.181Z,0.70
2022-07-26T14:09:18.297Z,0.88
2022-07-26T14:11:46.294Z,0.80
2022-07-26T14:14:14.689Z,0.90
2022-07-26T14:16:43.018Z,0.80
2022-07-26T14:19:15.048Z,1.00
2022-07-26T14:21:48.851Z,0.82
2022-07-26T14:24:28.465Z,0.90
2022-07-26T14:26:59.184Z,1.10
2022-07-26T14:29:28.034Z,0.70
2022-07-26T14:31:56.121Z,0.93
2022-07-26T14:34:24.313Z,1.00
2022-07-26T14:36:53.785Z,0.93
2022-07-26T14:39:21.884Z,0.80
2022-07-26T14:41:49.941Z,0.95
2022-07-26T14:44:17.942Z,0.90
2022-07-26T14:46:46.497Z,0.88
2022-07-26T14:49:14.559Z,0.90
2022-07-26T14:51:42.659Z,0.70
2022-07-26T14:54:13.923Z,0.98
2022-07-26T14:56:42.345Z,1.10
2022-07-26T14:59:10.360Z,0.90
2022-07-26T15:01:41.250Z,0.88
2022-07-26T15:04:09.633Z,1.00
2022-07-26T15:06:37.809Z,0.90
2022-07-26T15:09:05.802Z,1.00
2022-07-26T15:11:35.398Z,0.80
2022-07-26T15:14:06.084Z,1.00
2022-07-26T15:16:34.607Z,0.90
2022-07-26T15:19:02.715Z,0.77
2022-07-26T15:21:30.753Z,0.80
2022-07-26T15:23:58.776Z,0.90
2022-07-26T15:26:26.797Z,0.90
2022-07-26T15:28:56.197Z,0.85
2022-07-26T15:31:24.900Z,0.80
2022-07-26T15:34:05.721Z,1.00
2022-07-26T15:36:33.712Z,0.80
2022-07-26T15:39:15.946Z,1.00
2022-07-26T15:41:44.522Z,0.90
2022-07-26T15:44:14.257Z,0.90
2022-07-26T15:46:45.899Z,0.80
2022-07-26T15:49:16.143Z,0.80
2022-07-26T15:51:44.256Z,0.80
2022-07-26T15:54:13.707Z,0.80
2022-07-26T15:56:42.153Z,0.90
2022-07-26T15:59:10.163Z,1.00
2022-07-26T16:01:39.681Z,0.88
2022-07-26T16:04:11.117Z,0.80
2022-07-26T16:06:39.499Z,0.80
2022-07-26T16:09:22.934Z,1.00
2022-07-26T16:11:50.977Z,0.82
2022-07-26T16:14:18.936Z,0.80
2022-07-26T16:16:48.334Z,0.90
2022-07-26T16:19:16.456Z,0.90
2022-07-26T16:21:44.532Z,0.90
2022-07-26T16:24:12.532Z,0.90
2022-07-26T16:26:40.871Z,0.90
2022-07-26T16:29:09.114Z,0.70
2022-07-26T16:31:37.418Z,0.82
2022-07-26T16:34:06.857Z,0.90
2022-07-26T16:36:34.821Z,0.80
2022-07-26T16:39:02.824Z,0.80
2022-07-26T16:41:30.957Z,0.80
2022-07-26T16:43:58.935Z,0.80
2022-07-26T16:46:27.740Z,1.02
2022-07-26T16:48:55.846Z,0.90
2022-07-26T16:51:25.333Z,0.77
2022-07-26T16:53:53.973Z,0.80
2022-07-26T16:56:22.051Z,0.80
2022-07-26T16:58:50.055Z,0.73
2022-07-26T17:01:18.124Z,0.80
2022-07-26T17:03:48.204Z,0.70
2022-07-26T17:06:16.194Z,1.02
2022-07-26T17:08:45.486Z,0.95
2022-07-26T17:11:13.495Z,0.90
2022-07-26T17:13:41.480Z,0.77
2022-07-26T17:16:09.529Z,0.80
2022-07-26T17:18:37.560Z,0.80
2022-07-26T17:21:08.418Z,0.80
2022-07-26T17:23:36.485Z,0.85
2022-07-26T17:26:05.881Z,0.70
2022-07-26T17:28:33.906Z,0.98
2022-07-26T17:31:01.872Z,0.70
2022-07-26T17:33:30.031Z,0.70
2022-07-26T17:36:02.175Z,0.80
2022-07-26T17:38:32.515Z,0.80
2022-07-26T17:41:02.264Z,0.77
2022-07-26T17:43:36.752Z,0.85
2022-07-26T17:46:05.154Z,0.90
2022-07-26T17:48:33.659Z,0.80
2022-07-26T17:51:01.714Z,0.90
2022-07-26T17:53:34.321Z,0.90
2022-07-26T17:56:03.017Z,0.90
2022-07-26T17:58:32.378Z,0.90
2022-07-26T18:01:00.386Z,0.73
2022-07-26T18:03:28.397Z,0.80
2022-07-26T18:05:56.435Z,1.00
2022-07-26T18:08:27.164Z,0.88
2022-07-26T18:10:55.296Z,1.00
2022-07-26T18:13:23.369Z,0.80
2022-07-26T18:15:52.766Z,0.82
2022-07-26T18:18:20.801Z,0.90
2022-07-26T18:20:48.827Z,0.88
2022-07-26T18:23:16.860Z,0.80
2022-07-26T18:25:44.906Z,0.90
2022-07-26T18:28:12.982Z,0.90
2022-07-26T18:30:41.014Z,0.93
2022-07-26T18:33:12.056Z,0.95
2022-07-26T18:35:40.076Z,0.90
2022-07-26T18:38:08.076Z,0.88
2022-07-26T18:40:36.068Z,0.70
2022-07-26T18:43:04.053Z,0.80
2022-07-26T18:45:32.081Z,1.05
2022-07-26T18:48:00.071Z,0.90
2022-07-26T18:50:31.062Z,0.88
2022-07-26T18:53:00.406Z,0.60
2022-07-26T18:55:28.557Z,1.00
2022-07-26T18:57:56.585Z,0.90
2022-07-26T19:00:25.162Z,0.82
2022-07-26T19:02:54.503Z,0.80
2022-07-26T19:05:23.707Z,0.82
2022-07-26T19:07:53.129Z,0.80
2022-07-26T19:10:21.174Z,0.80
2022-07-26T19:12:54.498Z,0.80
2022-07-26T19:15:22.813Z,0.90
2022-07-26T19:17:50.859Z,0.90
2022-07-26T19:20:18.851Z,0.98
2022-07-26T19:22:48.367Z,0.80
2022-07-26T19:25:18.048Z,0.95
2022-07-26T19:27:46.056Z,0.85
2022-07-26T19:30:14.485Z,0.80
2022-07-26T19:32:42.528Z,0.60
2022-07-26T19:35:10.991Z,0.93
2022-07-26T19:37:39.049Z,0.82
2022-07-26T19:40:08.279Z,0.82
2022-07-26T19:42:37.836Z,0.90
2022-07-26T19:45:06.435Z,0.93
2022-07-26T19:47:35.723Z,0.90
2022-07-26T19:50:03.816Z,0.80
2022-07-26T19:52:31.867Z,0.90
2022-07-26T19:54:59.839Z,0.90
2022-07-26T19:57:28.345Z,0.77
2022-07-26T19:59:58.046Z,1.00
2022-07-26T20:02:26.189Z,0.70
2022-07-26T20:04:54.228Z,0.90
2022-07-26T20:07:22.219Z,0.80
2022-07-26T20:09:50.371Z,0.75
2022-07-26T20:12:18.447Z,0.82
2022-07-26T20:14:46.423Z,0.77
2022-07-26T20:17:16.990Z,0.70
2022-07-26T20:19:45.089Z,1.00
2022-07-26T20:22:13.609Z,1.00
2022-07-26T20:24:41.615Z,0.80
2022-07-26T20:27:09.641Z,0.85
2022-07-26T20:29:37.626Z,0.90
2022-07-26T20:32:06.243Z,0.95
2022-07-26T20:34:35.879Z,0.70
2022-07-26T20:37:03.829Z,0.75
2022-07-26T20:39:31.829Z,0.90
2022-07-26T20:41:59.808Z,0.75
2022-07-26T20:44:29.618Z,0.70
2022-07-26T20:46:57.646Z,0.90
2022-07-26T20:49:25.802Z,0.80
2022-07-26T20:51:55.586Z,0.80
2022-07-26T20:54:23.536Z,0.70
2022-07-26T20:56:51.576Z,0.80
2022-07-26T20:59:19.536Z,0.90
2022-07-26T21:01:47.811Z,0.77
2022-07-26T21:04:15.803Z,0.80
2022-07-26T21:06:43.802Z,0.80
2022-07-26T21:09:13.374Z,1.00
2022-07-26T21:11:41.623Z,0.80
2022-07-26T21:14:09.608Z,0.88
2022-07-26T21:16:37.649Z,0.85
2022-07-26T21:19:05.837Z,0.80
2022-07-26T21:21:36.933Z,0.80
2022-07-26T21:24:05.911Z,0.90
2022-07-26T21:26:35.352Z,1.00
2022-07-26T21:29:03.313Z,0.80
2022-07-26T21:31:31.484Z,0.80
2022-07-26T21:33:59.923Z,0.70
2022-07-26T21:36:27.970Z,0.77
2022-07-26T21:38:56.022Z,0.90
2022-07-26T21:41:24.046Z,0.80
2022-07-26T21:43:53.678Z,0.75
2022-07-26T21:46:21.797Z,0.82
2022-07-26T21:48:49.927Z,0.73
2022-07-26T21:51:20.836Z,0.80
2022-07-26T21:53:48.839Z,0.60
2022-07-26T21:56:17.271Z,0.68
2022-07-26T21:58:45.315Z,0.88
2022-07-26T22:01:16.503Z,0.70
2022-07-26T22:03:44.516Z,0.80
2022-07-26T22:06:13.057Z,0.70
2022-07-26T22:08:41.133Z,0.80
2022-07-26T22:11:09.136Z,0.75
2022-07-26T22:13:37.180Z,0.77
2022-07-26T22:16:05.654Z,0.95
2022-07-26T22:18:35.103Z,0.85
2022-07-26T22:21:03.099Z,0.75
2022-07-26T22:23:31.191Z,0.70
2022-07-26T22:25:59.727Z,0.68
2022-07-26T22:28:27.739Z,0.60
2022-07-26T22:30:55.730Z,0.70
2022-07-26T22:33:23.733Z,0.80
2022-07-26T22:35:53.120Z,0.55
2022-07-26T22:38:21.115Z,0.70
2022-07-26T22:40:49.108Z,0.75
2022-07-26T22:43:17.047Z,0.70
2022-07-26T22:45:45.027Z,0.77
2022-07-26T22:48:13.074Z,0.63
2022-07-26T22:50:41.077Z,0.70
2022-07-26T22:53:10.432Z,0.80
2022-07-26T22:55:38.404Z,0.60
2022-07-26T22:58:06.389Z,0.80
2022-07-26T23:00:34.438Z,0.70
2022-07-26T23:03:02.437Z,0.73
2022-07-26T23:05:45.682Z,0.73
2022-07-26T23:08:45.853Z,0.70
2022-07-26T23:11:05.131Z,0.60
2022-07-26T23:13:33.226Z,0.60
2022-07-26T23:16:02.017Z,0.70
2022-07-26T23:18:30.479Z,0.60
2022-07-26T23:20:58.450Z,0.73
2022-07-26T23:23:29.258Z,0.60
2022-07-26T23:25:58.835Z,0.77
2022-07-26T23:28:37.377Z,0.70
2022-07-26T23:31:10.368Z,0.77
2022-07-26T23:33:53.158Z,0.55
2022-07-26T23:36:25.602Z,0.63
2022-07-26T23:38:54.983Z,0.80
2022-07-26T23:41:23.032Z,0.70
2022-07-26T23:43:51.050Z,0.80
2022-07-26T23:46:19.137Z,0.60
2022-07-26T23:48:47.283Z,0.60
2022-07-26T23:51:15.484Z,0.70
2022-07-26T23:53:43.583Z,0.70
2022-07-26T23:56:12.931Z,0.60
2022-07-26T23:58:40.854Z,0.60
